Curvelo, Brazil
Current Conditions -  °F | °C
As of 6:00 PM on Monday 24 Nov 2014 (Local Time) from SBLS Reporting Station
Broken Clouds Broken Clouds  
Wind Chill: 73°   Ceiling: 10000
Heat Index: 73°   Visibility: 6mi
Dew Point: 66°   Wind: 6mph
Humidity: 78%   Direction: 70°ENE
Pressure: 30"   Gusts: NA
Location:  18.76°S, 44.43°W
Report Text: SBLS 242000Z 07005KT 030V100 9999 SCT023 BKN100 23/19 Q1016
Loading
Personal Weather Stations






























Interactive Weather Map New forecast layout! Learn more

10-Day Weather Forecast

Advertisements
Track Severe Weather on mobile